Time;durP1;ratioP1;P1;durP2;ratioP2;P2;SDS_P1;SDS_P2;PMS_P1;PMS_P2;Temp;Humidity;BMP_temperature;BMP_pressure;BME280_temperature;BME280_humidity;BME280_pressure;Samples;Min_cycle;Max_cycle;Signal;HPM_P1;HPM_P2
2021/08/16 00:02:09;;;;;;;6.7;4.5;;;;;;;19.94;91.2959;936.7622;;;;
2021/08/16 00:04:41;;;;;;;9;4.9;;;;;;;19.95;92.25684;936.8336;;;;
2021/08/16 00:07:07;;;;;;;9.6;5.4;;;;;;;20.02;92.76172;936.7751;;;;
2021/08/16 00:09:42;;;;;;;8.3;4.7;;;;;;;20.22;92.43945;936.7556;;;;
2021/08/16 00:12:16;;;;;;;7.8;5.5;;;;;;;20.2;92.71777;936.7618;;;;
2021/08/16 00:14:42;;;;;;;5.8;4.5;;;;;;;20.03;92.39063;936.7442;;;;
2021/08/16 00:17:06;;;;;;;6.7;5;;;;;;;20.01;93.37598;936.815;;;;
2021/08/16 00:19:35;;;;;;;8.7;5;;;;;;;20.03;92.27344;936.7629;;;;
2021/08/16 00:22:07;;;;;;;6.9;5.1;;;;;;;20.04;91.86523;936.7385;;;;
2021/08/16 00:24:34;;;;;;;8.9;5.2;;;;;;;20.1;91.46973;936.8103;;;;
2021/08/16 00:26:58;;;;;;;7.1;4.9;;;;;;;20.11;91.1582;936.843;;;;
2021/08/16 00:29:22;;;;;;;7.1;4.6;;;;;;;20.11;91.55566;936.8301;;;;
2021/08/16 00:31:48;;;;;;;7.5;4.8;;;;;;;20.17;91.38965;936.8696;;;;
2021/08/16 00:34:13;;;;;;;8.4;4.9;;;;;;;20.19;91.90918;936.8739;;;;
2021/08/16 00:36:38;;;;;;;7;4.7;;;;;;;19.85;93.60059;936.9189;;;;
2021/08/16 00:39:07;;;;;;;6.5;4.3;;;;;;;19.88;92.80176;936.8494;;;;
2021/08/16 00:41:33;;;;;;;8;4.9;;;;;;;19.71;92.95215;936.8426;;;;
2021/08/16 00:43:57;;;;;;;8.3;4.9;;;;;;;19.65;92.73047;936.7732;;;;
2021/08/16 00:46:22;;;;;;;6.4;4.7;;;;;;;19.75;92.66992;936.6976;;;;
2021/08/16 00:48:47;;;;;;;6.3;5.1;;;;;;;19.81;92.4248;936.6498;;;;
2021/08/16 00:51:14;;;;;;;7.8;4.7;;;;;;;19.82;92.48633;936.6975;;;;
2021/08/16 00:53:39;;;;;;;6.9;4.8;;;;;;;19.82;92.04199;936.7022;;;;
2021/08/16 00:56:05;;;;;;;7.7;4.5;;;;;;;19.78;92.61719;936.738;;;;
2021/08/16 00:58:30;;;;;;;6.2;4.8;;;;;;;19.29;95.77637;936.7183;;;;
2021/08/16 01:00:58;;;;;;;5.9;4.5;;;;;;;19.36;95.60645;936.6937;;;;
2021/08/16 01:03:22;;;;;;;7.4;4.8;;;;;;;19.46;95.02148;936.6518;;;;
2021/08/16 01:05:47;;;;;;;5.5;4.3;;;;;;;19.52;93.62305;936.7271;;;;
2021/08/16 01:08:13;;;;;;;6.8;4.7;;;;;;;19.55;93.4209;936.572;;;;
2021/08/16 01:10:38;;;;;;;5.9;4.7;;;;;;;19.59;93.70996;936.532;;;;
2021/08/16 01:13:03;;;;;;;6.7;3.9;;;;;;;19.57;93.28516;936.502;;;;
2021/08/16 01:15:33;;;;;;;6.7;4.4;;;;;;;19.59;92.6123;936.546;;;;
2021/08/16 01:17:57;;;;;;;5.7;4.6;;;;;;;19.6;93.3252;936.5408;;;;
2021/08/16 01:20:23;;;;;;;7.5;4.9;;;;;;;19.5;91.3584;936.4836;;;;
2021/08/16 01:22:49;;;;;;;6.3;4.6;;;;;;;19.43;91.73926;936.4394;;;;
2021/08/16 01:25:14;;;;;;;4.6;4.1;;;;;;;19.51;92.4209;936.4484;;;;
2021/08/16 01:27:40;;;;;;;4.7;4.1;;;;;;;19.72;90.9834;936.3141;;;;
2021/08/16 01:30:05;;;;;;;5.7;3.9;;;;;;;19.73;91.27832;936.253;;;;
2021/08/16 01:32:30;;;;;;;5.6;4;;;;;;;19.63;92.01367;936.3044;;;;
2021/08/16 01:34:55;;;;;;;4.6;3.6;;;;;;;19.51;93.08496;936.2516;;;;
2021/08/16 01:37:21;;;;;;;5.3;3.9;;;;;;;19.54;93.26563;936.1185;;;;
2021/08/16 01:39:45;;;;;;;6.7;4.3;;;;;;;19.53;91.16797;935.9907;;;;
2021/08/16 01:42:11;;;;;;;5.3;4.2;;;;;;;19.5;91.77734;936.0056;;;;
2021/08/16 01:44:36;;;;;;;5.2;4.2;;;;;;;19.57;91.43164;936.0722;;;;
2021/08/16 01:47:01;;;;;;;7.1;4.6;;;;;;;19.47;91.99121;936.0742;;;;
2021/08/16 01:49:26;;;;;;;4.6;3.9;;;;;;;19.43;92.89258;935.963;;;;
2021/08/16 01:51:52;;;;;;;7.2;4.1;;;;;;;19.34;93.3418;936.0347;;;;
2021/08/16 01:54:18;;;;;;;5.5;4.4;;;;;;;19.45;92.1748;935.8728;;;;
2021/08/16 01:56:43;;;;;;;5.1;4.1;;;;;;;19.45;92.30273;935.8502;;;;
2021/08/16 01:59:08;;;;;;;7.8;4.4;;;;;;;19.39;90.79785;935.7717;;;;
2021/08/16 02:01:36;;;;;;;7.4;4.3;;;;;;;19.4;91.9082;935.7203;;;;
2021/08/16 02:04:01;;;;;;;7.5;4.7;;;;;;;19.39;93.02539;935.7264;;;;
2021/08/16 02:06:26;;;;;;;6.8;4.1;;;;;;;19.12;93.98145;935.6692;;;;
2021/08/16 02:08:51;;;;;;;6.7;4.3;;;;;;;18.77;96.37109;935.6409;;;;
2021/08/16 02:11:16;;;;;;;5.1;4.6;;;;;;;18.6;96.7793;935.6164;;;;
2021/08/16 02:13:42;;;;;;;4.9;4.1;;;;;;;18.6;95.75391;935.577;;;;
2021/08/16 02:16:11;;;;;;;7.6;4.5;;;;;;;18.74;94.53809;935.5917;;;;
2021/08/16 02:18:32;;;;;;;6;4.2;;;;;;;18.89;93.62891;935.65;;;;
2021/08/16 02:20:58;;;;;;;5.5;4.4;;;;;;;19.09;91.13281;935.6878;;;;
2021/08/16 02:23:31;;;;;;;5.7;3.6;;;;;;;19.05;90.88086;935.6348;;;;
2021/08/16 02:25:56;;;;;;;6.3;4.3;;;;;;;19.18;90.90625;935.4964;;;;
2021/08/16 02:28:22;;;;;;;5.6;4.2;;;;;;;19.17;91.8252;935.5041;;;;
2021/08/16 02:30:49;;;;;;;6.7;4.1;;;;;;;19.25;91.66699;935.5212;;;;
2021/08/16 02:33:14;;;;;;;7.5;4.2;;;;;;;19.1;91.66992;935.5114;;;;
2021/08/16 02:36:16;;;;;;;6.5;3.8;;;;;;;18.98;92.06445;935.5549;;;;
2021/08/16 02:38:41;;;;;;;7;4.1;;;;;;;18.62;94.89648;935.5419;;;;
2021/08/16 02:43:32;;;;;;;5.8;4.1;;;;;;;18.69;94.63379;935.5672;;;;
2021/08/16 02:45:57;;;;;;;7;4.7;;;;;;;18.75;93.97168;935.5422;;;;
2021/08/16 02:48:22;;;;;;;5.9;4.5;;;;;;;18.84;93.28125;935.5142;;;;
2021/08/16 02:50:50;;;;;;;6.9;4.5;;;;;;;18.92;93.51953;935.574;;;;
2021/08/16 02:53:15;;;;;;;7.2;4.3;;;;;;;18.99;93.16113;935.6652;;;;
2021/08/16 02:55:40;;;;;;;6.4;3.8;;;;;;;18.98;92.68359;935.7032;;;;
2021/08/16 02:58:05;;;;;;;6.8;4.5;;;;;;;18.94;92.42969;935.7681;;;;
2021/08/16 03:04:22;;;;;;;4.8;3.9;;;;;;;18.91;92.38672;935.7658;;;;
2021/08/16 03:06:47;;;;;;;4.7;4.2;;;;;;;18.87;91.63281;935.8283;;;;
2021/08/16 03:09:12;;;;;;;5.6;4.2;;;;;;;18.87;92.07715;935.7723;;;;
2021/08/16 03:11:39;;;;;;;4;3.6;;;;;;;18.75;92.21289;935.7464;;;;
2021/08/16 03:14:04;;;;;;;5.4;4.1;;;;;;;18.8;91.7959;935.6794;;;;
2021/08/16 03:16:29;;;;;;;4.8;3.9;;;;;;;18.85;91.17676;935.6825;;;;
2021/08/16 03:18:57;;;;;;;5.2;3.9;;;;;;;18.92;91.15527;935.6485;;;;
2021/08/16 03:21:22;;;;;;;5.6;4.4;;;;;;;18.95;91.83789;935.6145;;;;
2021/08/16 03:23:47;;;;;;;5.8;4;;;;;;;18.91;92.76172;935.5663;;;;
2021/08/16 03:26:12;;;;;;;6.1;4;;;;;;;18.82;92.94043;935.6478;;;;
2021/08/16 03:28:39;;;;;;;4.9;3.8;;;;;;;18.93;92.2666;935.6336;;;;
2021/08/16 03:31:04;;;;;;;5.4;4.4;;;;;;;18.93;92.42969;935.7239;;;;
2021/08/16 03:33:29;;;;;;;4.7;3.9;;;;;;;19.05;92.00977;935.7461;;;;
2021/08/16 03:35:54;;;;;;;5.3;3.6;;;;;;;19.07;91.75781;935.6536;;;;
2021/08/16 03:38:21;;;;;;;5.9;4.4;;;;;;;18.86;92.44727;935.6719;;;;
2021/08/16 03:40:46;;;;;;;5.5;4.2;;;;;;;18.89;92.52246;935.738;;;;
2021/08/16 03:43:12;;;;;;;6;4;;;;;;;18.91;92.58691;935.7277;;;;
2021/08/16 03:45:37;;;;;;;6.1;4.1;;;;;;;19;92.37305;935.7584;;;;
2021/08/16 03:48:04;;;;;;;6.4;4.1;;;;;;;19.04;91.55371;935.8876;;;;
2021/08/16 03:50:29;;;;;;;6.5;3.8;;;;;;;19.04;91.00684;935.877;;;;
2021/08/16 03:52:56;;;;;;;6.3;4.1;;;;;;;18.91;91.5957;935.8546;;;;
2021/08/16 03:55:50;;;;;;;6.7;4.6;;;;;;;18.76;92.47266;935.8017;;;;
2021/08/16 03:58:08;;;;;;;7.7;4.5;;;;;;;18.59;93.79785;935.924;;;;
2021/08/16 04:02:42;;;;;;;4.5;3.6;;;;;;;18.77;93.9082;936.0545;;;;
2021/08/16 04:05:06;;;;;;;4.6;4;;;;;;;18.62;94.59473;936.133;;;;
2021/08/16 04:07:31;;;;;;;7.3;3.9;;;;;;;18.68;94.63184;936.2377;;;;
2021/08/16 04:09:56;;;;;;;6.1;4.1;;;;;;;18.81;93.59961;936.2643;;;;
2021/08/16 04:12:22;;;;;;;5.7;3.9;;;;;;;18.89;92.7207;936.3522;;;;
2021/08/16 04:14:46;;;;;;;6.2;3.8;;;;;;;18.89;92.27832;936.4142;;;;
2021/08/16 04:17:12;;;;;;;4.9;3.9;;;;;;;18.57;94.12891;936.4383;;;;
2021/08/16 04:19:39;;;;;;;6.3;4.1;;;;;;;18.65;93.28809;936.5159;;;;
2021/08/16 04:22:03;;;;;;;5.6;3.7;;;;;;;18.77;93.58984;936.5461;;;;
2021/08/16 04:25:21;;;;;;;6.3;4.1;;;;;;;18.86;93.89063;936.528;;;;
2021/08/16 04:27:49;;;;;;;5.8;4.2;;;;;;;18.84;94.68945;936.7011;;;;
2021/08/16 04:30:12;;;;;;;7.5;4.5;;;;;;;18.93;94.58301;936.7213;;;;
2021/08/16 04:32:38;;;;;;;6.2;4.5;;;;;;;18.95;93.875;936.6861;;;;
2021/08/16 04:35:03;;;;;;;6.8;4.3;;;;;;;19.04;93.33496;936.7729;;;;
2021/08/16 04:37:28;;;;;;;5.9;4.4;;;;;;;18.91;95.0293;936.8906;;;;
2021/08/16 04:39:53;;;;;;;6.3;3.6;;;;;;;18.55;96.7207;936.9476;;;;
2021/08/16 04:42:18;;;;;;;5.7;3.9;;;;;;;18.8;95.77539;936.918;;;;
2021/08/16 04:44:43;;;;;;;6.8;3.9;;;;;;;18.92;94.89355;936.8797;;;;
2021/08/16 04:47:08;;;;;;;5.6;3.8;;;;;;;18.96;94.14453;936.9475;;;;
2021/08/16 04:49:33;;;;;;;6.2;4.2;;;;;;;18.96;95.2168;936.9473;;;;
2021/08/16 04:51:58;;;;;;;7.6;4.3;;;;;;;18.67;96.5957;936.7502;;;;
2021/08/16 04:54:24;;;;;;;7.1;4.1;;;;;;;18.67;96.60742;936.6445;;;;
2021/08/16 04:56:49;;;;;;;6.4;3.9;;;;;;;18.44;98.44141;936.7211;;;;
2021/08/16 04:59:14;;;;;;;5.7;3.9;;;;;;;18.4;98.93262;936.7232;;;;
2021/08/16 05:01:39;;;;;;;5.6;3.9;;;;;;;18.63;97.13379;936.6608;;;;
2021/08/16 05:04:04;;;;;;;6;4;;;;;;;18.78;96.02539;936.6111;;;;
2021/08/16 05:06:32;;;;;;;5.6;3.7;;;;;;;18.9;95.51563;936.5931;;;;
2021/08/16 05:08:54;;;;;;;6.3;4.1;;;;;;;18.98;93.61328;936.5361;;;;
2021/08/16 05:11:20;;;;;;;6.3;4;;;;;;;19.04;93.82422;936.4647;;;;
2021/08/16 05:13:45;;;;;;;7.3;4.2;;;;;;;18.98;94.21777;936.5248;;;;
2021/08/16 05:16:10;;;;;;;5.6;3.8;;;;;;;18.94;93.10449;936.5533;;;;
2021/08/16 05:18:35;;;;;;;6.4;3.5;;;;;;;18.88;94.16406;936.6273;;;;
2021/08/16 05:21:06;;;;;;;5.4;3.9;;;;;;;18.85;93.17871;936.6847;;;;
2021/08/16 05:23:32;;;;;;;5.1;3.5;;;;;;;18.76;92.38965;936.6972;;;;
2021/08/16 05:25:57;;;;;;;5.2;3.6;;;;;;;18.78;90.75684;936.7102;;;;
2021/08/16 05:28:25;;;;;;;5.4;3.5;;;;;;;18.82;91.16992;936.7473;;;;
2021/08/16 05:30:49;;;;;;;5.4;3.7;;;;;;;19;92.63867;936.8358;;;;
2021/08/16 05:33:14;;;;;;;4.5;3.7;;;;;;;19.09;93.55664;936.8524;;;;
2021/08/16 05:35:39;;;;;;;6.3;4;;;;;;;18.91;93.79688;936.8977;;;;
2021/08/16 05:38:04;;;;;;;6.4;3.6;;;;;;;19.03;94.54395;936.8951;;;;
2021/08/16 05:40:30;;;;;;;4.8;3.6;;;;;;;18.92;94.94922;936.8928;;;;
2021/08/16 05:42:56;;;;;;;7.2;3.9;;;;;;;19.03;94.14648;936.8097;;;;
2021/08/16 05:45:21;;;;;;;6.6;3.6;;;;;;;19;95.2002;936.8755;;;;
2021/08/16 05:47:46;;;;;;;7.3;4.2;;;;;;;19.06;93.94629;936.9709;;;;
2021/08/16 05:50:13;;;;;;;5.6;4;;;;;;;19.15;93.41602;937.022;;;;
2021/08/16 05:52:38;;;;;;;4.4;3.4;;;;;;;19.16;93.11523;936.9523;;;;
2021/08/16 05:55:03;;;;;;;5.4;3.7;;;;;;;19.22;92.89551;936.8837;;;;
2021/08/16 05:57:28;;;;;;;5.1;3.5;;;;;;;19.3;93.00391;936.9788;;;;
2021/08/16 05:59:53;;;;;;;7;4.7;;;;;;;18.98;96.11719;937.0396;;;;
2021/08/16 06:02:19;;;;;;;4.8;3.6;;;;;;;18.99;96.21094;937.075;;;;
2021/08/16 06:04:44;;;;;;;6.4;3.8;;;;;;;19.2;95.12598;937.0877;;;;
2021/08/16 06:07:09;;;;;;;4.7;3.7;;;;;;;19.23;94.49121;936.9816;;;;
2021/08/16 06:09:34;;;;;;;5.1;3.4;;;;;;;19.26;93.24121;937.0162;;;;
2021/08/16 06:12:01;;;;;;;4.4;3.6;;;;;;;19.25;93.22754;936.9761;;;;
2021/08/16 06:14:26;;;;;;;6.3;3.6;;;;;;;19.11;93.15234;936.9011;;;;
2021/08/16 06:16:51;;;;;;;3.7;3.3;;;;;;;19.18;93.5498;936.9164;;;;
2021/08/16 06:19:17;;;;;;;4.6;3.6;;;;;;;19.18;94.26074;936.7977;;;;
2021/08/16 06:21:44;;;;;;;5.4;3.7;;;;;;;19.28;93.75977;936.8387;;;;
2021/08/16 06:24:08;;;;;;;6.1;3.9;;;;;;;19.35;93.64453;936.8248;;;;
2021/08/16 06:26:34;;;;;;;5.3;4;;;;;;;19.46;93.19238;936.8133;;;;
2021/08/16 06:28:59;;;;;;;4.9;3.7;;;;;;;19.57;92.55078;936.8518;;;;
2021/08/16 06:31:26;;;;;;;4.9;3.6;;;;;;;19.54;90.49316;936.8511;;;;
2021/08/16 06:34:09;;;;;;;5.9;4;;;;;;;19.59;91.78516;936.8942;;;;
2021/08/16 06:36:37;;;;;;;6.4;4.3;;;;;;;19.6;92.4043;936.8608;;;;
2021/08/16 06:38:56;;;;;;;6;4;;;;;;;19.59;92.39063;936.861;;;;
2021/08/16 06:41:21;;;;;;;4.7;3.7;;;;;;;19.6;91.82129;936.7831;;;;
2021/08/16 06:43:47;;;;;;;5.3;3.7;;;;;;;19.71;91.54102;936.7595;;;;
2021/08/16 06:46:12;;;;;;;5.9;4.1;;;;;;;19.59;92.8457;936.7253;;;;
2021/08/16 06:48:37;;;;;;;5;3.5;;;;;;;19.65;92.76563;936.7231;;;;
2021/08/16 06:51:02;;;;;;;5.7;3.6;;;;;;;19.54;92.28809;936.7015;;;;
2021/08/16 06:53:27;;;;;;;5.2;3.6;;;;;;;19.64;93.37012;936.6417;;;;
2021/08/16 06:55:53;;;;;;;4.9;3.7;;;;;;;19.77;92.75391;936.6625;;;;
2021/08/16 06:58:17;;;;;;;4.3;3.3;;;;;;;19.75;92.70508;936.7;;;;
2021/08/16 07:00:42;;;;;;;5.2;3.3;;;;;;;19.97;90.46387;936.6237;;;;
2021/08/16 07:03:09;;;;;;;7.1;3.3;;;;;;;20.18;89.22363;936.553;;;;
2021/08/16 07:06:15;;;;;;;5;3.4;;;;;;;20.32;88.99316;936.5062;;;;
2021/08/16 07:08:42;;;;;;;6.4;3.5;;;;;;;20.56;86.63672;936.6376;;;;
2021/08/16 07:11:07;;;;;;;6.5;3.2;;;;;;;20.75;86.31055;936.6585;;;;
2021/08/16 07:13:34;;;;;;;4.5;3.3;;;;;;;20.77;83.82617;936.6717;;;;
2021/08/16 07:15:59;;;;;;;4.4;3.1;;;;;;;21.12;86.10156;936.647;;;;
2021/08/16 07:18:24;;;;;;;5.8;3.7;;;;;;;21.31;84.54688;936.6735;;;;
2021/08/16 07:20:49;;;;;;;4.6;3.3;;;;;;;21.18;81.98438;936.6813;;;;
2021/08/16 07:23:14;;;;;;;4.1;2.8;;;;;;;21.22;81.40723;936.6387;;;;
2021/08/16 07:25:40;;;;;;;4.2;3.1;;;;;;;21.25;83.97461;936.6586;;;;
2021/08/16 07:28:05;;;;;;;3.8;2.7;;;;;;;21.06;81.30566;936.7138;;;;
2021/08/16 07:30:30;;;;;;;3.9;3.1;;;;;;;21.08;83.98926;936.7389;;;;
2021/08/16 07:32:55;;;;;;;4.2;3.4;;;;;;;21.16;85.59375;936.653;;;;
2021/08/16 07:35:20;;;;;;;4;2.6;;;;;;;20.74;84.3916;936.6105;;;;
2021/08/16 07:37:45;;;;;;;5;3.2;;;;;;;20.43;85.86328;936.6085;;;;
2021/08/16 07:40:12;;;;;;;4.3;3.3;;;;;;;20.3;87.21582;936.6192;;;;
2021/08/16 07:42:35;;;;;;;3.9;3.2;;;;;;;20.39;88.99512;936.5818;;;;
2021/08/16 07:45:01;;;;;;;4.3;2.7;;;;;;;20.46;88.35645;936.5656;;;;
2021/08/16 07:47:26;;;;;;;3.8;3.1;;;;;;;20.43;88.30371;936.6117;;;;
2021/08/16 07:49:51;;;;;;;4.1;3.3;;;;;;;20.64;88.27734;936.6118;;;;
2021/08/16 07:52:16;;;;;;;4.3;3.1;;;;;;;20.75;87.33984;936.6398;;;;
2021/08/16 07:54:41;;;;;;;4.6;2.7;;;;;;;20.7;86.52148;936.598;;;;
2021/08/16 07:57:06;;;;;;;5.3;3.3;;;;;;;20.65;87.33203;936.5678;;;;
2021/08/16 07:59:31;;;;;;;5.6;3.4;;;;;;;20.88;88.58105;936.5751;;;;
2021/08/16 08:01:57;;;;;;;4.4;3.4;;;;;;;21.1;86.6377;936.4727;;;;
2021/08/16 08:04:22;;;;;;;4.5;2.9;;;;;;;20.85;85.68652;936.4461;;;;
2021/08/16 08:06:48;;;;;;;4.9;2.5;;;;;;;20.95;85.69531;936.4581;;;;
2021/08/16 08:09:13;;;;;;;3.8;2.7;;;;;;;21;84.87402;936.4911;;;;
2021/08/16 08:11:38;;;;;;;4;3.2;;;;;;;20.95;86.86523;936.5064;;;;
2021/08/16 08:14:03;;;;;;;4.8;3;;;;;;;21.24;84.34766;936.5308;;;;
2021/08/16 08:16:28;;;;;;;4.6;3.2;;;;;;;21.23;87.35254;936.5769;;;;
2021/08/16 08:18:53;;;;;;;3.3;2.9;;;;;;;21.33;88.12109;936.6047;;;;
2021/08/16 08:21:18;;;;;;;5.6;3.3;;;;;;;21.41;88.80469;936.6431;;;;
2021/08/16 08:23:43;;;;;;;4.3;3;;;;;;;21.43;88.12988;936.6364;;;;
2021/08/16 08:26:08;;;;;;;3.6;3;;;;;;;21.6;87.76367;936.6054;;;;
2021/08/16 08:28:34;;;;;;;5.6;3.2;;;;;;;21.71;86.9668;936.6436;;;;
2021/08/16 08:31:00;;;;;;;3.7;3.2;;;;;;;21.64;85.71191;936.5464;;;;
2021/08/16 08:33:25;;;;;;;2.5;2.3;;;;;;;21.31;85.98633;936.5129;;;;
2021/08/16 08:35:51;;;;;;;5;3;;;;;;;21.23;87.10742;936.454;;;;
2021/08/16 08:38:15;;;;;;;3.4;2.4;;;;;;;21.45;85.44043;936.4014;;;;
2021/08/16 08:40:40;;;;;;;3.3;2.8;;;;;;;;;;;;;
2021/08/16 08:43:05;;;;;;;3.3;2.7;;;;;;;;;;;;;
2021/08/16 08:45:30;;;;;;;3.3;2.6;;;;;;;;;;;;;
2021/08/16 08:47:55;;;;;;;6.6;2.7;;;;;;;;;;;;;
2021/08/16 08:50:21;;;;;;;5.3;2.8;;;;;;;;;;;;;
2021/08/16 08:52:46;;;;;;;3.8;2.4;;;;;;;;;;;;;
2021/08/16 08:55:11;;;;;;;3.3;2.5;;;;;;;;;;;;;
2021/08/16 08:57:36;;;;;;;4.4;2.8;;;;;;;;;;;;;
2021/08/16 09:00:02;;;;;;;4.9;2.8;;;;;;;;;;;;;
2021/08/16 09:02:27;;;;;;;3;2.2;;;;;;;;;;;;;
2021/08/16 09:04:53;;;;;;;3.4;2.5;;;;;;;;;;;;;
2021/08/16 09:07:18;;;;;;;3.5;2.3;;;;;;;;;;;;;
2021/08/16 09:09:43;;;;;;;3.7;2.7;;;;;;;;;;;;;
2021/08/16 09:12:08;;;;;;;2.8;2.6;;;;;;;;;;;;;
2021/08/16 09:14:33;;;;;;;4.3;2.8;;;;;;;;;;;;;
2021/08/16 09:17:01;;;;;;;3.3;2.4;;;;;;;;;;;;;
2021/08/16 09:19:51;;;;;;;3.5;2.5;;;;;;;;;;;;;
2021/08/16 09:22:17;;;;;;;2.8;2.1;;;;;;;;;;;;;
2021/08/16 09:24:41;;;;;;;3.2;2;;;;;;;;;;;;;
2021/08/16 09:27:06;;;;;;;3.2;2.1;;;;;;;;;;;;;
2021/08/16 09:29:31;;;;;;;4.5;2.4;;;;;;;;;;;;;
2021/08/16 09:31:56;;;;;;;3.1;2.1;;;;;;;;;;;;;
2021/08/16 09:34:21;;;;;;;3.5;2.1;;;;;;;;;;;;;
2021/08/16 09:36:46;;;;;;;3.1;2;;;;;;;;;;;;;
2021/08/16 09:39:11;;;;;;;3;2.3;;;;;;;;;;;;;
2021/08/16 09:41:36;;;;;;;3;2.1;;;;;;;;;;;;;
2021/08/16 09:44:01;;;;;;;3.9;3;;;;;;;;;;;;;
2021/08/16 09:46:26;;;;;;;3.3;2.6;;;;;;;;;;;;;
2021/08/16 09:48:52;;;;;;;3;2;;;;;;;;;;;;;
2021/08/16 09:51:17;;;;;;;3.5;2.4;;;;;;;;;;;;;
2021/08/16 09:53:42;;;;;;;2.1;1.9;;;;;;;;;;;;;
2021/08/16 09:56:07;;;;;;;2.6;2.2;;;;;;;;;;;;;
2021/08/16 09:58:32;;;;;;;3.7;2.2;;;;;;;;;;;;;
2021/08/16 10:00:58;;;;;;;3.5;2.4;;;;;;;;;;;;;
2021/08/16 10:03:25;;;;;;;2.6;2.3;;;;;;;;;;;;;
2021/08/16 10:05:49;;;;;;;3.5;2.2;;;;;;;;;;;;;
2021/08/16 10:08:13;;;;;;;2.9;1.9;;;;;;;;;;;;;
2021/08/16 10:10:38;;;;;;;4.1;2.2;;;;;;;;;;;;;
2021/08/16 10:13:03;;;;;;;3.8;2;;;;;;;;;;;;;
2021/08/16 10:15:28;;;;;;;2.8;1.8;;;;;;;;;;;;;
2021/08/16 10:17:54;;;;;;;2.3;2;;;;;;;;;;;;;
2021/08/16 10:20:19;;;;;;;2.3;2.1;;;;;;;;;;;;;
2021/08/16 10:22:44;;;;;;;2.3;2.1;;;;;;;;;;;;;
2021/08/16 10:25:09;;;;;;;3.3;2;;;;;;;;;;;;;
2021/08/16 10:27:34;;;;;;;2.3;2.1;;;;;;;;;;;;;
2021/08/16 10:29:59;;;;;;;2;1.7;;;;;;;;;;;;;
2021/08/16 10:32:28;;;;;;;3.6;2;;;;;;;;;;;;;
2021/08/16 10:34:49;;;;;;;3;2.1;;;;;;;;;;;;;
2021/08/16 10:37:15;;;;;;;2.3;2.1;;;;;;;;;;;;;
2021/08/16 10:39:40;;;;;;;2.2;2;;;;;;;;;;;;;
2021/08/16 10:42:05;;;;;;;2.2;1.9;;;;;;;;;;;;;
2021/08/16 10:44:30;;;;;;;3.1;1.8;;;;;;;;;;;;;
2021/08/16 10:46:55;;;;;;;2.3;2.1;;;;;;;;;;;;;
2021/08/16 10:49:20;;;;;;;2.6;1.6;;;;;;;;;;;;;
2021/08/16 10:51:45;;;;;;;2.7;1.5;;;;;;;;;;;;;
2021/08/16 10:54:10;;;;;;;2;1.8;;;;;;;;;;;;;
2021/08/16 10:56:36;;;;;;;1.7;1.6;;;;;;;;;;;;;
2021/08/16 11:03:51;;;;;;;2.3;2;;;;;;;;;;;;;
2021/08/16 11:06:16;;;;;;;2.8;1.8;;;;;;;;;;;;;
2021/08/16 11:08:41;;;;;;;2.6;1.9;;;;;;;;;;;;;
2021/08/16 11:11:06;;;;;;;3.5;2.2;;;;;;;;;;;;;
2021/08/16 11:13:32;;;;;;;3.1;1.9;;;;;;;;;;;;;
2021/08/16 11:15:57;;;;;;;2.1;1.7;;;;;;;;;;;;;
2021/08/16 11:18:22;;;;;;;2.6;2;;;;;;;;;;;;;
2021/08/16 11:20:47;;;;;;;2.9;2;;;;;;;;;;;;;
2021/08/16 11:23:12;;;;;;;2.4;2.1;;;;;;;;;;;;;
2021/08/16 11:25:37;;;;;;;4.4;2.3;;;;;;;;;;;;;
2021/08/16 11:28:03;;;;;;;2.8;2;;;;;;;;;;;;;
2021/08/16 11:30:27;;;;;;;3.5;2.6;;;;;;;;;;;;;
2021/08/16 11:32:52;;;;;;;2.7;2.4;;;;;;;;;;;;;
2021/08/16 11:35:18;;;;;;;2.9;2;;;;;;;;;;;;;
2021/08/16 11:37:48;;;;;;;2.3;2.1;;;;;;;;;;;;;
2021/08/16 11:40:09;;;;;;;4.5;2.1;;;;;;;;;;;;;
2021/08/16 11:42:34;;;;;;;3.3;2.2;;;;;;;;;;;;;
2021/08/16 11:44:59;;;;;;;2.5;2.3;;;;;;;;;;;;;
2021/08/16 11:47:24;;;;;;;3.6;2.4;;;;;;;;;;;;;
2021/08/16 11:49:49;;;;;;;2.5;2.3;;;;;;;;;;;;;
2021/08/16 11:52:14;;;;;;;3.4;2.3;;;;;;;;;;;;;
2021/08/16 11:54:39;;;;;;;2.5;2.3;;;;;;;;;;;;;
2021/08/16 11:57:04;;;;;;;3.3;2.3;;;;;;;;;;;;;
2021/08/16 11:59:29;;;;;;;4.8;2.8;;;;;;;;;;;;;
2021/08/16 12:01:55;;;;;;;5;2.8;;;;;;;;;;;;;
2021/08/16 12:04:21;;;;;;;3.1;2.8;;;;;;;;;;;;;
2021/08/16 12:06:45;;;;;;;3.2;2.5;;;;;;;;;;;;;
2021/08/16 12:09:10;;;;;;;3.3;3;;;;;;;;;;;;;
2021/08/16 12:11:35;;;;;;;3.9;2.9;;;;;;;;;;;;;
2021/08/16 12:14:01;;;;;;;5.1;3.2;;;;;;;;;;;;;
2021/08/16 12:16:25;;;;;;;3.8;3.2;;;;;;;;;;;;;
2021/08/16 12:18:51;;;;;;;4;3.3;;;;;;;;;;;;;
2021/08/16 12:21:16;;;;;;;3.5;2.9;;;;;;;;;;;;;
2021/08/16 12:23:41;;;;;;;3.4;2.9;;;;;;;;;;;;;
2021/08/16 12:26:07;;;;;;;44.4;18.6;;;;;;;;;;;;;
2021/08/16 12:28:31;;;;;;;3.9;2.3;;;;;;;;;;;;;
2021/08/16 12:30:56;;;;;;;7.1;4.6;;;;;;;;;;;;;
2021/08/16 12:33:21;;;;;;;2.6;2.4;;;;;;;;;;;;;
2021/08/16 12:35:47;;;;;;;3.6;2.6;;;;;;;;;;;;;
2021/08/16 12:38:12;;;;;;;2.6;2.2;;;;;;;;;;;;;
2021/08/16 12:40:37;;;;;;;12.2;6.9;;;;;;;;;;;;;
2021/08/16 12:43:03;;;;;;;64.7;29.7;;;;;;;;;;;;;
2021/08/16 12:45:27;;;;;;;34.5;10.4;;;;;;;;;;;;;
2021/08/16 12:47:52;;;;;;;37.2;14.6;;;;;;;;;;;;;
2021/08/16 12:50:17;;;;;;;70.7;31.6;;;;;;;;;;;;;
2021/08/16 12:52:43;;;;;;;6.3;4.2;;;;;;;;;;;;;
2021/08/16 12:55:08;;;;;;;8.6;4.8;;;;;;;;;;;;;
2021/08/16 12:57:33;;;;;;;4.5;3.1;;;;;;;;;;;;;
2021/08/16 12:59:58;;;;;;;3.4;3.1;;;;;;;;;;;;;
2021/08/16 13:02:23;;;;;;;9.9;5;;;;;;;;;;;;;
2021/08/16 13:04:48;;;;;;;17.8;7.6;;;;;;;;;;;;;
2021/08/16 13:07:13;;;;;;;4.1;3.1;;;;;;;;;;;;;
2021/08/16 13:09:38;;;;;;;44.4;13.5;;;;;;;;;;;;;
2021/08/16 13:12:03;;;;;;;3;2.4;;;;;;;;;;;;;
2021/08/16 13:14:28;;;;;;;3.1;2.3;;;;;;;;;;;;;
2021/08/16 13:16:53;;;;;;;3.5;2.8;;;;;;;;;;;;;
2021/08/16 13:19:19;;;;;;;3.3;2.6;;;;;;;;;;;;;
2021/08/16 13:21:44;;;;;;;3.4;2.9;;;;;;;;;;;;;
2021/08/16 13:24:09;;;;;;;2.7;2.2;;;;;;;;;;;;;
2021/08/16 13:26:35;;;;;;;2.6;2.4;;;;;;;;;;;;;
2021/08/16 17:57:34;;;;;;;4.1;2.6;;;;;;;16.43;86.15137;938.9281;;;;
2021/08/16 18:00:58;;;;;;;1.4;1.1;;;;;;;16.44;85.42383;938.9409;;;;
2021/08/16 18:03:25;;;;;;;1.1;1;;;;;;;16.37;85.54883;938.9102;;;;
2021/08/16 18:05:48;;;;;;;1.3;1.2;;;;;;;16.13;88.18652;938.992;;;;
2021/08/16 18:08:14;;;;;;;1.2;1.1;;;;;;;16.15;88.07227;938.9654;;;;
2021/08/16 18:10:39;;;;;;;1.5;1.1;;;;;;;15.89;89.18652;938.9886;;;;
2021/08/16 18:13:04;;;;;;;1.1;1;;;;;;;15.71;91.04688;938.9877;;;;
2021/08/16 18:15:29;;;;;;;1.7;1.3;;;;;;;15.71;91.25488;938.9603;;;;
2021/08/16 18:17:56;;;;;;;2.2;1.4;;;;;;;15.84;90.7959;939.0413;;;;
2021/08/16 18:20:21;;;;;;;2.1;1.3;;;;;;;15.83;90.27539;938.9885;;;;
2021/08/16 18:22:46;;;;;;;1.3;1.2;;;;;;;15.35;91.65332;939.0725;;;;
2021/08/16 18:25:14;;;;;;;1.3;1.1;;;;;;;15.19;93.43262;939.0588;;;;
2021/08/16 18:27:38;;;;;;;1.8;1.2;;;;;;;15.44;92.65332;938.9838;;;;
2021/08/16 18:30:03;;;;;;;1.9;1.5;;;;;;;15.45;92.38965;939.108;;;;
2021/08/16 18:32:29;;;;;;;1.8;1;;;;;;;15.27;92.83789;939.1203;;;;
2021/08/16 18:34:54;;;;;;;1.8;1;;;;;;;15.36;91.42383;939.0844;;;;
2021/08/16 18:37:20;;;;;;;1.4;1.1;;;;;;;15.48;92.69727;939.1608;;;;
2021/08/16 18:39:45;;;;;;;1.7;1.2;;;;;;;15.48;89.30078;939.2042;;;;
2021/08/16 18:42:17;;;;;;;1.3;1.2;;;;;;;15.61;90.23145;939.2355;;;;
2021/08/16 18:44:37;;;;;;;1.7;1.2;;;;;;;15.59;91.11328;939.2413;;;;
2021/08/16 18:47:02;;;;;;;1.5;1.3;;;;;;;15.51;91.93164;939.2929;;;;
2021/08/16 18:49:27;;;;;;;1;0.9;;;;;;;15.39;89.96484;939.259;;;;
2021/08/16 18:51:52;;;;;;;1.6;1.1;;;;;;;15.34;90.33496;939.2619;;;;
2021/08/16 18:54:17;;;;;;;1.9;1.3;;;;;;;15.38;90.9082;939.3113;;;;
2021/08/16 18:56:42;;;;;;;2;1.5;;;;;;;15.15;90.29785;939.2757;;;;
2021/08/16 18:59:07;;;;;;;1.7;1.4;;;;;;;15.25;91.79395;939.2898;;;;
2021/08/16 19:01:33;;;;;;;1.9;1.4;;;;;;;15.31;91.19336;939.3777;;;;
2021/08/16 19:03:58;;;;;;;1.2;1;;;;;;;15.27;91.09375;939.3956;;;;
2021/08/16 19:06:23;;;;;;;3.2;1.2;;;;;;;15.13;91.79004;939.4034;;;;
2021/08/16 19:08:52;;;;;;;1.5;1.2;;;;;;;15.08;91.38867;939.4991;;;;
2021/08/16 19:11:14;;;;;;;2.7;1.3;;;;;;;15.04;91.11523;939.4561;;;;
2021/08/16 19:13:40;;;;;;;1.1;1;;;;;;;14.99;91.68262;939.3734;;;;
2021/08/16 19:16:05;;;;;;;1.4;1.3;;;;;;;15.08;91.64453;939.4662;;;;
2021/08/16 19:18:56;;;;;;;1.8;1.2;;;;;;;15.09;91.43652;939.5416;;;;
2021/08/16 19:21:22;;;;;;;1.7;1.3;;;;;;;14.91;90.93945;939.5599;;;;
2021/08/16 19:23:48;;;;;;;2.1;1.2;;;;;;;14.91;91.93066;939.6746;;;;
2021/08/16 19:26:13;;;;;;;1.2;1.1;;;;;;;14.98;90.70996;939.6301;;;;
2021/08/16 19:28:38;;;;;;;2.1;1.3;;;;;;;14.93;91.22949;939.6922;;;;
2021/08/16 19:33:53;;;;;;;1.7;1.1;;;;;;;14.69;92.69043;939.717;;;;
2021/08/16 19:36:20;;;;;;;2.6;1.5;;;;;;;14.71;93.02832;939.7859;;;;
2021/08/16 19:38:45;;;;;;;1.1;1;;;;;;;14.72;92.21191;939.8524;;;;
2021/08/16 19:41:22;;;;;;;1.3;1.2;;;;;;;14.73;91.16699;939.8058;;;;
2021/08/16 19:43:36;;;;;;;1.3;1.1;;;;;;;14.58;92.42578;939.7723;;;;
2021/08/16 19:46:01;;;;;;;1.4;0.8;;;;;;;14.49;93.62793;939.8328;;;;
2021/08/16 19:48:26;;;;;;;1.1;1;;;;;;;14.47;93.44922;939.7744;;;;
2021/08/16 19:50:52;;;;;;;1.1;0.9;;;;;;;14.4;92.83887;939.7516;;;;
2021/08/16 19:53:17;;;;;;;1;0.9;;;;;;;14.3;93.81738;939.642;;;;
2021/08/16 19:55:42;;;;;;;1.3;1;;;;;;;14.4;93.11523;939.6314;;;;
2021/08/16 19:58:07;;;;;;;1.5;1.2;;;;;;;14.35;92.89648;939.7004;;;;
2021/08/16 20:00:32;;;;;;;1.4;1.2;;;;;;;14.22;93.34082;939.6663;;;;
2021/08/16 20:02:58;;;;;;;1.3;1.1;;;;;;;14.22;93.78809;939.6055;;;;
2021/08/16 20:07:55;;;;;;;1.2;1.1;;;;;;;14.25;92.88672;939.5229;;;;
2021/08/16 20:10:20;;;;;;;1.5;0.9;;;;;;;14.21;93.03613;939.3977;;;;
2021/08/16 20:13:04;;;;;;;2.6;1.3;;;;;;;14.26;92.72754;939.454;;;;
2021/08/16 20:15:31;;;;;;;1.9;1.5;;;;;;;14.27;92.89941;939.4347;;;;
2021/08/16 20:20:21;;;;;;;1.3;1.2;;;;;;;14.06;93.36426;939.3797;;;;
2021/08/16 20:22:55;;;;;;;2;1.1;;;;;;;14.01;95.18262;939.3275;;;;
2021/08/16 20:25:21;;;;;;;1.3;1.1;;;;;;;13.94;94.52441;939.1643;;;;
2021/08/16 20:27:45;;;;;;;2;1.1;;;;;;;14.04;94.20996;939.2076;;;;
2021/08/16 20:30:10;;;;;;;1.6;1;;;;;;;14.14;93.7959;939.1264;;;;
2021/08/16 20:33:21;;;;;;;2.3;1.4;;;;;;;14.08;93.1123;939.1362;;;;
2021/08/16 20:35:37;;;;;;;2.1;1.4;;;;;;;14.01;93.69727;939.1393;;;;
2021/08/16 20:38:13;;;;;;;1.9;1.4;;;;;;;14.01;93.84766;939.0336;;;;